Time;durP1;ratioP1;P1;durP2;ratioP2;P2;SDS_P1;SDS_P2;PMS_P1;PMS_P2;Temp;Humidity;BMP_temperature;BMP_pressure;BME280_temperature;BME280_humidity;BME280_pressure;Samples;Min_cycle;Max_cycle;Signal;HPM_P1;HPM_P2
2022/03/23 00:00:09;;;;;;;58.30;39.42;;;8.20;99.90;;;;;;4961609;29;20055;-59
2022/03/23 00:02:34;;;;;;;53.63;38.55;;;8.10;99.90;;;;;;4930111;29;20057;-59
2022/03/23 00:05:00;;;;;;;57.00;40.28;;;8.10;99.90;;;;;;4963280;29;20082;-59
2022/03/23 00:07:26;;;;;;;52.17;38.60;;;8.00;99.90;;;;;;4962448;28;20050;-59
2022/03/23 00:09:52;;;;;;;55.80;37.85;;;8.10;99.90;;;;;;4963083;28;20055;-60
2022/03/23 00:12:18;;;;;;;54.67;38.20;;;8.00;99.90;;;;;;4962235;28;20058;-59
2022/03/23 00:14:43;;;;;;;51.42;37.08;;;8.00;99.90;;;;;;4963743;29;20079;-58
2022/03/23 00:17:09;;;;;;;50.83;36.72;;;7.90;99.90;;;;;;4962276;28;20439;-58
2022/03/23 00:19:35;;;;;;;54.78;39.22;;;7.90;99.90;;;;;;4963015;29;20051;-59
2022/03/23 00:22:01;;;;;;;52.17;38.35;;;7.90;99.90;;;;;;4963106;29;20051;-58
2022/03/23 00:24:27;;;;;;;54.60;39.13;;;7.90;99.90;;;;;;4962076;28;20110;-59
2022/03/23 00:26:52;;;;;;;53.00;38.05;;;7.80;99.90;;;;;;4963333;29;20043;-58
2022/03/23 00:29:18;;;;;;;56.80;38.10;;;7.80;99.90;;;;;;4962068;29;20103;-59
2022/03/23 00:31:44;;;;;;;55.70;37.65;;;7.80;99.90;;;;;;4962012;29;20439;-59
2022/03/23 00:34:10;;;;;;;51.42;37.60;;;7.70;99.90;;;;;;4962342;29;20563;-59
2022/03/23 00:36:36;;;;;;;56.13;40.10;;;7.70;99.90;;;;;;4963031;28;20103;-59
2022/03/23 00:39:02;;;;;;;54.65;37.03;;;7.60;99.90;;;;;;4962554;28;20137;-58
2022/03/23 00:41:28;;;;;;;56.53;40.13;;;7.60;99.90;;;;;;4962247;28;20054;-58
2022/03/23 00:43:53;;;;;;;58.05;41.00;;;7.60;99.90;;;;;;4962930;29;20047;-59
2022/03/23 00:46:19;;;;;;;58.60;39.70;;;7.60;99.90;;;;;;4961653;29;20043;-59
2022/03/23 00:48:45;;;;;;;56.05;39.95;;;7.60;99.90;;;;;;4963174;29;20057;-59
2022/03/23 00:51:11;;;;;;;58.80;41.63;;;7.60;99.90;;;;;;4961624;29;20073;-59
2022/03/23 00:53:37;;;;;;;56.13;40.85;;;7.50;99.90;;;;;;4945448;29;20043;-58
2022/03/23 00:56:04;;;;;;;60.72;41.40;;;7.50;99.90;;;;;;4962330;29;20039;-59
2022/03/23 00:58:30;;;;;;;60.75;40.80;;;7.50;99.90;;;;;;4962025;28;20587;-59
2022/03/23 01:00:55;;;;;;;60.53;41.78;;;7.40;99.90;;;;;;4962795;29;20492;-59
2022/03/23 01:03:22;;;;;;;62.92;39.97;;;7.40;99.90;;;;;;4961516;29;20415;-59
2022/03/23 01:05:50;;;;;;;61.65;42.38;;;7.40;99.90;;;;;;4962904;29;20078;-59
2022/03/23 01:08:15;;;;;;;61.50;40.97;;;7.40;99.90;;;;;;4960231;29;20617;-59
2022/03/23 01:10:41;;;;;;;60.17;40.70;;;7.30;99.90;;;;;;4962716;28;20046;-58
2022/03/23 01:13:07;;;;;;;58.17;39.22;;;7.30;99.90;;;;;;4961900;28;20552;-58
2022/03/23 01:15:33;;;;;;;58.30;38.15;;;7.30;99.90;;;;;;4961856;28;20418;-59
2022/03/23 01:17:59;;;;;;;59.13;40.03;;;7.30;99.90;;;;;;4962483;29;20039;-59
2022/03/23 01:20:25;;;;;;;62.42;42.25;;;7.30;99.90;;;;;;4960978;28;20051;-58
2022/03/23 01:22:51;;;;;;;58.42;40.13;;;7.30;99.90;;;;;;4962596;28;20059;-59
2022/03/23 01:25:18;;;;;;;53.05;37.45;;;7.30;99.90;;;;;;4959842;29;20135;-59
2022/03/23 01:27:45;;;;;;;55.45;38.47;;;7.10;99.90;;;;;;4962459;28;20047;-59
2022/03/23 01:30:12;;;;;;;60.53;40.63;;;7.20;99.90;;;;;;4961686;28;20469;-58
2022/03/23 01:32:39;;;;;;;60.95;40.85;;;7.20;99.90;;;;;;4960247;29;20496;-59
2022/03/23 01:35:07;;;;;;;58.08;39.42;;;7.20;99.90;;;;;;4962294;28;20047;-59
2022/03/23 01:37:34;;;;;;;58.85;40.10;;;7.20;99.90;;;;;;4961056;28;20054;-59
2022/03/23 01:40:01;;;;;;;56.83;38.13;;;7.20;99.90;;;;;;4961105;29;20558;-59
2022/03/23 01:42:27;;;;;;;61.30;39.13;;;7.20;99.90;;;;;;4960526;28;20047;-58
2022/03/23 01:44:53;;;;;;;58.55;39.53;;;7.10;99.90;;;;;;4960649;29;20051;-59
2022/03/23 01:47:19;;;;;;;54.35;38.47;;;7.10;99.90;;;;;;4961107;28;20036;-59
2022/03/23 01:49:47;;;;;;;51.70;35.95;;;7.00;99.90;;;;;;4959815;29;20484;-59
2022/03/23 01:52:16;;;;;;;56.03;37.80;;;6.90;99.90;;;;;;4961551;28;20043;-59
2022/03/23 01:54:43;;;;;;;54.47;37.35;;;6.90;99.90;;;;;;4960545;28;20570;-59
2022/03/23 01:57:10;;;;;;;55.47;36.80;;;6.90;99.90;;;;;;4961860;28;20039;-59
2022/03/23 01:59:36;;;;;;;59.20;37.20;;;6.80;99.90;;;;;;4960743;28;20047;-59
2022/03/23 02:02:03;;;;;;;53.78;38.60;;;6.80;99.90;;;;;;4960280;29;20075;-59
2022/03/23 02:04:29;;;;;;;56.97;37.95;;;6.80;99.90;;;;;;4960736;28;20098;-59
2022/03/23 02:06:55;;;;;;;58.08;39.92;;;6.80;99.90;;;;;;4961017;29;20047;-59
2022/03/23 02:09:21;;;;;;;57.03;38.75;;;6.80;99.90;;;;;;4960093;29;20055;-59
2022/03/23 02:11:49;;;;;;;54.22;36.60;;;6.80;99.90;;;;;;4960228;29;20527;-59
2022/03/23 02:14:15;;;;;;;49.72;34.38;;;6.70;99.90;;;;;;4961843;28;20049;-59
2022/03/23 02:16:46;;;;;;;50.58;35.22;;;6.70;99.90;;;;;;4960080;28;20061;-59
2022/03/23 02:19:12;;;;;;;52.15;35.53;;;6.70;99.90;;;;;;4961591;28;20047;-59
2022/03/23 02:21:48;;;;;;;57.72;38.72;;;6.60;99.90;;;;;;4960591;28;20078;-58
2022/03/23 02:24:14;;;;;;;58.80;40.30;;;6.50;99.90;;;;;;4960303;28;20072;-59
2022/03/23 02:26:41;;;;;;;62.95;40.00;;;6.60;99.90;;;;;;4959970;29;20043;-59
2022/03/23 02:29:08;;;;;;;59.58;38.55;;;6.60;99.90;;;;;;4960116;28;20047;-59
2022/03/23 02:31:35;;;;;;;55.75;37.83;;;6.60;99.90;;;;;;4960778;28;20039;-59
2022/03/23 02:34:01;;;;;;;57.10;38.53;;;6.50;99.90;;;;;;4960170;28;20078;-59
2022/03/23 02:36:27;;;;;;;59.10;39.35;;;6.50;99.90;;;;;;4961345;28;20087;-59
2022/03/23 02:38:53;;;;;;;59.42;37.97;;;6.50;99.90;;;;;;4960760;28;20043;-59
2022/03/23 02:41:19;;;;;;;59.05;40.47;;;6.50;99.90;;;;;;4960615;28;20452;-58
2022/03/23 02:43:45;;;;;;;57.97;38.20;;;6.50;99.90;;;;;;4943541;29;20043;-59
2022/03/23 02:46:17;;;;;;;57.75;38.88;;;6.40;99.90;;;;;;4959724;28;20047;-59
2022/03/23 02:48:43;;;;;;;;;;;6.40;99.90;;;;;;4961733;28;20054;-57
2022/03/23 02:51:09;;;;;;;53.00;36.33;;;6.40;99.90;;;;;;4958567;29;19930;-59
2022/03/23 03:02:22;;;;;;;54.00;37.35;;;6.40;99.90;;;;;;4960971;29;20054;-58
2022/03/23 03:04:49;;;;;;;56.50;36.70;;;6.30;99.90;;;;;;4960664;28;20054;-59
2022/03/23 03:07:15;;;;;;;62.80;40.08;;;6.20;99.90;;;;;;4959997;28;20047;-59
2022/03/23 03:09:41;;;;;;;54.42;37.20;;;6.20;99.90;;;;;;4961237;28;20048;-59
2022/03/23 03:12:08;;;;;;;56.47;38.70;;;6.30;99.90;;;;;;4959459;29;20054;-59
2022/03/23 03:14:34;;;;;;;54.42;35.85;;;6.20;99.90;;;;;;4961288;28;20046;-58
2022/03/23 03:17:00;;;;;;;56.17;37.30;;;6.20;99.90;;;;;;4942192;29;20873;-59
2022/03/23 03:19:25;;;;;;;49.88;35.60;;;6.10;99.90;;;;;;4959255;29;20043;-59
2022/03/23 03:21:54;;;;;;;53.85;37.38;;;6.10;99.90;;;;;;4960221;29;20511;-59
2022/03/23 03:24:20;;;;;;;56.95;38.80;;;6.10;99.90;;;;;;4958064;29;20063;-58
2022/03/23 03:26:46;;;;;;;68.25;42.00;;;6.20;99.90;;;;;;4960997;28;20055;-59
2022/03/23 03:29:12;;;;;;;65.82;42.42;;;6.20;99.90;;;;;;4958169;29;20058;-58
2022/03/23 03:31:38;;;;;;;63.97;42.15;;;6.20;99.90;;;;;;4958917;29;20067;-59
2022/03/23 03:34:03;;;;;;;63.55;41.15;;;6.10;99.90;;;;;;4958105;29;20039;-59
2022/03/23 03:36:29;;;;;;;64.07;41.35;;;6.10;99.90;;;;;;4960559;28;20566;-59
2022/03/23 03:38:55;;;;;;;61.28;41.35;;;6.10;99.90;;;;;;4960206;29;20642;-59
2022/03/23 03:41:21;;;;;;;59.38;38.22;;;6.10;99.90;;;;;;4959658;29;20048;-59
2022/03/23 03:43:49;;;;;;;55.63;37.17;;;6.10;99.90;;;;;;4961623;28;20435;-59
2022/03/23 03:46:14;;;;;;;60.25;39.42;;;6.10;99.90;;;;;;4962579;28;20051;-59
2022/03/23 03:48:43;;;;;;;55.65;37.50;;;6.10;99.90;;;;;;4964170;29;20074;-59
2022/03/23 03:51:10;;;;;;;51.88;35.50;;;6.10;99.90;;;;;;4963202;28;20062;-59
2022/03/23 03:53:36;;;;;;;58.08;36.13;;;6.50;99.90;;;;;;4962946;29;20111;-59
2022/03/23 03:56:02;;;;;;;53.25;37.25;;;6.00;99.90;;;;;;4963656;28;20043;-59
2022/03/23 03:58:28;;;;;;;55.60;36.90;;;6.00;99.90;;;;;;4963330;28;20046;-59
2022/03/23 04:00:54;;;;;;;51.60;34.45;;;6.10;99.90;;;;;;4962651;29;20036;-61
2022/03/23 04:03:20;;;;;;;53.25;34.53;;;6.00;99.90;;;;;;4961486;28;20043;-58
2022/03/23 04:05:46;;;;;;;48.92;33.17;;;5.90;99.90;;;;;;4962756;29;20086;-59
2022/03/23 04:08:11;;;;;;;57.17;36.95;;;5.90;99.90;;;;;;4962702;29;20090;-59
2022/03/23 04:10:37;;;;;;;49.95;33.35;;;5.90;99.90;;;;;;4963855;29;20095;-59
2022/03/23 04:13:03;;;;;;;51.53;35.22;;;5.90;99.90;;;;;;4963015;28;20058;-59
2022/03/23 04:15:29;;;;;;;49.45;33.83;;;5.90;99.90;;;;;;4963019;28;20036;-59
2022/03/23 04:17:56;;;;;;;53.35;36.90;;;5.90;99.90;;;;;;4963668;28;20135;-59
2022/03/23 04:20:22;;;;;;;56.13;36.28;;;5.80;99.90;;;;;;4961306;29;20533;-59
2022/03/23 04:22:49;;;;;;;55.90;36.42;;;5.80;99.90;;;;;;4963546;28;20574;-59
2022/03/23 04:25:16;;;;;;;58.30;38.42;;;5.90;99.90;;;;;;4961961;28;20082;-59
2022/03/23 04:27:53;;;;;;;54.58;36.92;;;5.90;99.90;;;;;;4963416;28;20047;-59
2022/03/23 04:30:20;;;;;;;54.17;36.67;;;5.90;99.90;;;;;;4962724;28;20427;-59
2022/03/23 04:32:49;;;;;;;53.90;35.35;;;5.80;99.90;;;;;;4962514;28;20062;-59
2022/03/23 04:35:15;;;;;;;53.95;36.35;;;5.90;99.90;;;;;;4963100;28;20051;-59
2022/03/23 04:37:42;;;;;;;53.92;35.97;;;5.80;99.90;;;;;;4962012;29;20041;-59
2022/03/23 04:40:09;;;;;;;56.22;35.30;;;5.90;99.90;;;;;;4963295;28;20114;-59
2022/03/23 04:42:36;;;;;;;49.60;33.25;;;5.90;99.90;;;;;;4961827;28;20054;-59
2022/03/23 04:45:03;;;;;;;45.33;32.22;;;5.90;99.90;;;;;;4962986;28;20047;-58
2022/03/23 04:47:30;;;;;;;44.75;31.00;;;5.90;99.90;;;;;;4962282;28;20043;-59
2022/03/23 04:49:56;;;;;;;48.72;32.88;;;5.80;99.90;;;;;;4962148;28;20098;-59
2022/03/23 04:52:21;;;;;;;45.42;30.90;;;5.80;99.90;;;;;;4962648;29;20047;-59
2022/03/23 04:54:47;;;;;;;43.55;30.90;;;5.80;99.90;;;;;;4961596;28;20054;-59
2022/03/23 04:57:13;;;;;;;41.45;30.20;;;5.80;99.90;;;;;;4961380;28;20126;-59
2022/03/23 04:59:38;;;;;;;43.83;29.73;;;5.70;99.90;;;;;;4960370;29;20047;-59
2022/03/23 05:02:05;;;;;;;40.10;28.33;;;5.70;99.90;;;;;;4962845;29;20130;-59
2022/03/23 05:04:31;;;;;;;42.33;29.17;;;5.70;99.90;;;;;;4960929;29;20051;-59
2022/03/23 05:06:57;;;;;;;43.83;31.13;;;5.60;99.90;;;;;;4960612;28;20094;-59
2022/03/23 05:09:22;;;;;;;43.03;31.77;;;5.60;99.90;;;;;;4962879;28;20047;-58
2022/03/23 05:11:48;;;;;;;48.35;33.42;;;5.60;99.90;;;;;;4961500;28;20047;-57
2022/03/23 05:14:15;;;;;;;44.53;31.08;;;5.60;99.90;;;;;;4962804;28;20083;-57
2022/03/23 05:16:42;;;;;;;45.83;31.33;;;5.60;99.90;;;;;;4961321;28;20044;-58
2022/03/23 05:19:07;;;;;;;47.60;30.88;;;5.40;99.90;;;;;;4962654;28;20066;-57
2022/03/23 05:21:33;;;;;;;46.58;31.73;;;5.50;99.90;;;;;;4961828;29;20405;-57
2022/03/23 05:23:59;;;;;;;47.65;31.27;;;5.40;99.90;;;;;;4961594;29;20048;-57
2022/03/23 05:26:24;;;;;;;45.67;31.02;;;5.50;99.90;;;;;;4962271;29;20046;-57
2022/03/23 05:28:50;;;;;;;47.50;32.85;;;5.40;99.90;;;;;;4959646;29;20199;-57
2022/03/23 05:31:16;;;;;;;49.20;32.08;;;5.50;99.90;;;;;;4962232;29;20066;-57
2022/03/23 05:33:41;;;;;;;56.22;36.08;;;5.40;99.90;;;;;;4959485;29;20051;-57
2022/03/23 05:36:07;;;;;;;53.45;36.22;;;5.50;99.90;;;;;;4962394;28;20084;-57
2022/03/23 05:38:33;;;;;;;60.03;38.65;;;5.50;99.90;;;;;;4959916;29;20142;-57
2022/03/23 05:40:58;;;;;;;56.78;37.67;;;5.50;99.90;;;;;;4961391;29;20502;-57
2022/03/23 05:43:27;;;;;;;58.28;37.97;;;5.60;99.90;;;;;;4961688;29;20107;-56
2022/03/23 05:45:53;;;;;;;53.47;34.70;;;5.50;99.90;;;;;;4960597;29;20047;-57
2022/03/23 05:48:18;;;;;;;54.17;35.72;;;5.50;99.90;;;;;;4961892;29;20058;-57
2022/03/23 05:50:44;;;;;;;50.35;33.10;;;5.40;99.90;;;;;;4959753;29;20071;-57
2022/03/23 05:53:10;;;;;;;53.92;34.47;;;5.50;99.90;;;;;;4962033;29;20078;-57
2022/03/23 05:55:36;;;;;;;50.42;33.67;;;5.40;99.90;;;;;;4960728;28;20462;-57
2022/03/23 05:58:03;;;;;;;52.55;34.95;;;5.40;99.90;;;;;;4961285;29;20043;-57
2022/03/23 06:00:30;;;;;;;55.88;36.85;;;5.40;99.90;;;;;;4961610;29;20050;-57
2022/03/23 06:02:56;;;;;;;55.13;34.83;;;5.50;99.90;;;;;;4960607;28;20137;-57
2022/03/23 06:05:22;;;;;;;43.10;31.05;;;5.50;99.90;;;;;;4961724;28;20043;-55
2022/03/23 06:07:47;;;;;;;46.22;30.20;;;5.50;99.90;;;;;;4959799;29;20174;-57
2022/03/23 06:10:13;;;;;;;44.65;30.58;;;5.60;99.90;;;;;;4960167;29;20605;-57
2022/03/23 06:12:39;;;;;;;44.60;30.90;;;5.50;99.90;;;;;;4958892;29;20504;-57
2022/03/23 06:15:07;;;;;;;42.28;29.63;;;5.50;99.90;;;;;;4927948;29;20058;-57
2022/03/23 06:17:33;;;;;;;41.45;29.17;;;5.60;99.90;;;;;;4960837;28;20118;-57
2022/03/23 06:19:58;;;;;;;41.70;27.73;;;5.60;99.90;;;;;;4960445;29;20071;-57
2022/03/23 06:22:25;;;;;;;39.40;26.92;;;5.70;99.90;;;;;;4961326;28;20091;-58
2022/03/23 06:24:51;;;;;;;37.78;26.50;;;5.70;99.90;;;;;;4958515;29;20090;-57
2022/03/23 06:27:17;;;;;;;37.60;27.35;;;5.80;99.90;;;;;;4960527;29;20043;-57
2022/03/23 06:29:43;;;;;;;45.35;28.25;;;5.80;99.90;;;;;;4943040;29;20047;-57
2022/03/23 06:32:09;;;;;;;42.25;28.25;;;5.80;99.90;;;;;;4959947;28;20047;-58
2022/03/23 06:34:35;;;;;;;45.67;29.50;;;5.90;99.90;;;;;;4960769;29;20058;-58
2022/03/23 06:37:01;;;;;;;43.90;30.40;;;5.90;99.90;;;;;;4959039;29;20047;-58
2022/03/23 06:39:30;;;;;;;44.22;30.85;;;6.00;99.90;;;;;;4961309;28;20292;-58
2022/03/23 06:41:55;;;;;;;45.33;31.55;;;6.10;99.90;;;;;;4958959;29;20062;-58
2022/03/23 06:44:21;;;;;;;46.45;32.15;;;6.10;99.90;;;;;;4961381;28;20114;-59
2022/03/23 06:46:47;;;;;;;51.50;34.97;;;6.20;99.90;;;;;;4959929;29;20093;-58
2022/03/23 06:49:12;;;;;;;59.20;37.95;;;6.30;99.90;;;;;;4961284;29;20045;-58
2022/03/23 06:51:38;;;;;;;59.42;40.20;;;6.30;99.90;;;;;;4960531;28;20047;-58
2022/03/23 06:54:04;;;;;;;59.53;39.38;;;6.40;99.90;;;;;;4960558;28;20035;-58
2022/03/23 06:56:29;;;;;;;61.25;41.45;;;6.50;99.90;;;;;;4961303;29;20047;-59
2022/03/23 06:58:58;;;;;;;62.72;40.35;;;6.60;99.90;;;;;;4958764;29;20058;-58
2022/03/23 07:01:24;;;;;;;60.20;41.28;;;6.70;99.90;;;;;;4959973;29;20130;-58
2022/03/23 07:03:50;;;;;;;60.42;41.25;;;6.70;99.90;;;;;;4959730;29;20086;-60
2022/03/23 07:06:16;;;;;;;60.38;40.22;;;6.80;99.90;;;;;;4961269;29;20062;-58
2022/03/23 07:11:28;;;;;;;59.47;39.78;;;7.10;99.90;;;;;;4958347;29;20055;-57
2022/03/23 07:13:54;;;;;;;62.92;39.40;;;7.10;99.90;;;;;;4960921;29;20066;-58
2022/03/23 07:16:19;;;;;;;56.35;37.58;;;7.20;99.90;;;;;;4958164;28;20054;-58
2022/03/23 07:18:45;;;;;;;56.50;38.92;;;7.30;99.90;;;;;;4963811;28;20051;-58
2022/03/23 07:21:11;;;;;;;56.95;38.85;;;7.40;99.90;;;;;;4963691;29;20384;-58
2022/03/23 07:23:37;;;;;;;56.65;38.92;;;7.50;99.90;;;;;;4964030;29;20075;-58
2022/03/23 07:26:04;;;;;;;54.08;36.92;;;7.60;99.90;;;;;;4964486;29;20074;-59
2022/03/23 07:28:31;;;;;;;58.20;37.38;;;7.60;99.90;;;;;;4963827;28;20107;-59
2022/03/23 07:30:57;;;;;;;60.85;40.50;;;7.70;99.90;;;;;;4964744;28;20403;-58
2022/03/23 07:33:23;;;;;;;58.63;39.50;;;7.80;99.90;;;;;;4963195;29;20047;-58
2022/03/23 07:35:48;;;;;;;65.03;43.00;;;7.90;99.90;;;;;;4963289;29;20050;-58
2022/03/23 07:38:15;;;;;;;58.42;40.15;;;8.00;99.90;;;;;;4961808;28;20051;-58
2022/03/23 07:40:41;;;;;;;59.28;40.00;;;8.20;99.90;;;;;;4962916;29;20047;-58
2022/03/23 07:43:07;;;;;;;61.38;40.72;;;8.20;99.90;;;;;;4963872;28;20045;-56
2022/03/23 07:45:32;;;;;;;62.47;43.33;;;8.30;99.90;;;;;;4963293;29;20049;-58
2022/03/23 07:47:58;;;;;;;62.90;42.17;;;8.50;99.90;;;;;;4962775;29;20074;-58
2022/03/23 07:50:24;;;;;;;65.70;43.38;;;8.60;99.90;;;;;;4961522;29;20102;-58
2022/03/23 07:52:50;;;;;;;64.82;42.55;;;8.70;99.90;;;;;;4963163;29;20043;-58
2022/03/23 07:55:16;;;;;;;62.42;41.78;;;8.90;99.90;;;;;;4962901;28;20039;-57
2022/03/23 07:57:41;;;;;;;65.00;43.28;;;8.80;99.90;;;;;;4964113;29;20078;-58
2022/03/23 08:00:08;;;;;;;64.68;41.92;;;9.00;99.90;;;;;;4963481;29;20047;-58
2022/03/23 08:02:33;;;;;;;62.33;42.55;;;9.10;99.90;;;;;;4963372;28;20078;-58
2022/03/23 08:04:59;;;;;;;64.50;41.22;;;9.20;99.90;;;;;;4963903;28;20066;-58
2022/03/23 08:07:25;;;;;;;63.88;42.42;;;9.30;99.90;;;;;;4961617;28;20043;-58
2022/03/23 08:09:50;;;;;;;57.85;39.35;;;9.40;99.90;;;;;;4962291;29;20492;-58
2022/03/23 08:12:26;;;;;;;59.08;39.22;;;9.50;99.90;;;;;;4961358;29;20051;-58
2022/03/23 08:14:52;;;;;;;58.38;40.03;;;9.60;99.90;;;;;;4964080;28;20102;-58
2022/03/23 08:17:18;;;;;;;59.42;40.65;;;9.70;99.90;;;;;;4961567;29;20547;-57
2022/03/23 08:19:43;;;;;;;59.70;40.53;;;9.80;99.90;;;;;;4963034;28;20099;-58
2022/03/23 08:22:09;;;;;;;54.53;39.05;;;9.90;99.90;;;;;;4963872;29;20047;-59
2022/03/23 08:24:35;;;;;;;56.55;36.92;;;10.00;99.90;;;;;;4962071;28;20138;-59
2022/03/23 08:27:01;;;;;;;58.08;37.15;;;10.10;99.90;;;;;;4946480;29;20097;-59
2022/03/23 08:29:27;;;;;;;53.25;37.75;;;10.20;99.90;;;;;;4961810;28;20463;-58
2022/03/23 08:31:53;;;;;;;53.88;37.58;;;10.30;99.90;;;;;;4963495;29;20051;-58
2022/03/23 08:34:19;;;;;;;57.80;40.25;;;10.40;99.90;;;;;;4962556;29;20043;-59
2022/03/23 08:36:44;;;;;;;51.85;36.90;;;10.50;99.90;;;;;;4961469;29;20067;-56
2022/03/23 08:39:10;;;;;;;49.65;35.60;;;10.50;99.90;;;;;;4963425;28;20047;-57
2022/03/23 08:41:36;;;;;;;54.22;37.42;;;10.70;99.90;;;;;;4962132;29;20125;-59
2022/03/23 08:44:03;;;;;;;53.63;36.17;;;10.70;99.90;;;;;;4961955;29;20074;-58
2022/03/23 08:46:29;;;;;;;48.63;32.53;;;10.80;99.90;;;;;;4960126;29;20039;-58
2022/03/23 08:48:55;;;;;;;49.25;33.33;;;10.90;99.90;;;;;;4963342;29;20047;-58
2022/03/23 08:51:21;;;;;;;46.03;31.55;;;11.10;99.90;;;;;;4962277;28;20039;-58
2022/03/23 08:53:46;;;;;;;44.55;32.85;;;11.10;99.90;;;;;;4962665;29;20081;-59
2022/03/23 08:56:12;;;;;;;49.40;32.25;;;11.20;99.90;;;;;;4962949;28;20094;-58
2022/03/23 08:58:39;;;;;;;47.17;33.70;;;11.40;99.90;;;;;;4961942;29;20055;-58
2022/03/23 09:01:05;;;;;;;43.85;30.73;;;11.40;99.90;;;;;;4962994;28;20075;-59
2022/03/23 09:03:32;;;;;;;49.58;33.67;;;11.50;99.90;;;;;;4961672;28;20083;-58
2022/03/23 09:05:58;;;;;;;48.25;34.05;;;11.70;99.90;;;;;;4962938;28;20085;-58
2022/03/23 09:08:24;;;;;;;47.72;33.65;;;11.60;99.90;;;;;;4961875;28;20043;-58
2022/03/23 09:10:50;;;;;;;50.85;33.35;;;11.80;99.90;;;;;;4962363;28;20047;-59
2022/03/23 09:13:16;;;;;;;50.78;33.05;;;11.80;99.90;;;;;;4962707;28;20054;-58
2022/03/23 09:15:42;;;;;;;49.50;34.33;;;11.90;99.90;;;;;;4961386;29;20039;-58
2022/03/23 09:18:08;;;;;;;52.78;33.53;;;12.00;99.90;;;;;;4962750;28;20051;-59
2022/03/23 09:20:33;;;;;;;49.47;33.65;;;12.20;99.90;;;;;;4961382;28;20047;-58
2022/03/23 09:23:00;;;;;;;48.55;32.58;;;12.30;99.90;;;;;;4962713;29;20043;-58
2022/03/23 09:25:26;;;;;;;48.90;34.10;;;12.40;99.90;;;;;;4961124;28;20055;-59
2022/03/23 09:27:52;;;;;;;48.97;32.05;;;12.40;99.90;;;;;;4960341;29;20128;-58
2022/03/23 09:30:19;;;;;;;48.13;33.10;;;12.50;99.90;;;;;;4962225;28;20382;-58
2022/03/23 09:32:46;;;;;;;46.72;32.00;;;12.50;99.90;;;;;;4961348;28;20058;-58
2022/03/23 09:35:14;;;;;;;46.25;33.15;;;12.60;99.90;;;;;;4962388;28;20047;-58
2022/03/23 09:37:49;;;;;;;47.88;32.20;;;12.70;99.90;;;;;;4961208;28;20054;-59
2022/03/23 09:40:30;;;;;;;49.75;33.47;;;12.80;99.90;;;;;;4962410;28;20043;-58
2022/03/23 09:42:56;;;;;;;44.72;30.92;;;12.80;99.90;;;;;;4961055;28;20047;-58
2022/03/23 09:48:02;;;;;;;40.08;27.10;;;13.10;99.90;;;;;;4962180;28;20047;-59
2022/03/23 09:50:29;;;;;;;44.97;28.67;;;13.30;99.90;;;;;;4960968;28;20039;-59
2022/03/23 09:52:55;;;;;;;40.03;26.90;;;13.30;99.90;;;;;;4962103;28;20626;-59
2022/03/23 09:55:21;;;;;;;42.25;28.25;;;13.30;99.90;;;;;;4961060;28;20061;-58
2022/03/23 09:57:47;;;;;;;39.00;27.92;;;13.40;99.90;;;;;;4961878;29;20091;-59
2022/03/23 10:00:13;;;;;;;38.90;27.63;;;13.50;99.90;;;;;;4960261;29;20047;-58
2022/03/23 10:02:42;;;;;;;38.03;26.88;;;13.60;99.90;;;;;;4961193;28;20062;-57
2022/03/23 10:05:42;;;;;;;38.53;25.15;;;13.70;99.90;;;;;;4961709;28;20071;-59
2022/03/23 10:08:23;;;;;;;34.97;26.35;;;13.80;99.90;;;;;;4960509;28;20043;-58
2022/03/23 10:11:26;;;;;;;34.60;24.20;;;13.80;99.90;;;;;;4961564;29;20055;-59
2022/03/23 10:14:30;;;;;;;36.83;24.60;;;13.80;99.90;;;;;;4961687;29;20043;-59
2022/03/23 10:17:17;;;;;;;33.05;23.50;;;13.90;99.90;;;;;;4960584;28;20075;-58
2022/03/23 10:19:44;;;;;;;33.22;24.60;;;14.10;99.90;;;;;;4960774;29;20393;-59
2022/03/23 10:22:12;;;;;;;33.50;23.95;;;14.20;99.90;;;;;;4960139;29;20053;-58
2022/03/23 10:24:38;;;;;;;32.38;23.35;;;14.20;99.90;;;;;;4960293;28;20051;-59
2022/03/23 10:27:12;;;;;;;33.13;24.08;;;14.30;99.90;;;;;;4961825;29;20259;-58
2022/03/23 10:29:56;;;;;;;33.50;24.17;;;14.30;99.90;;;;;;4960765;28;20082;-58
2022/03/23 10:32:22;;;;;;;33.85;23.60;;;14.30;99.60;;;;;;4960729;29;20114;-59
2022/03/23 10:34:52;;;;;;;33.55;22.92;;;14.40;99.90;;;;;;4961149;29;20062;-58
2022/03/23 10:37:30;;;;;;;28.92;21.95;;;14.50;99.20;;;;;;4960227;28;20099;-59
2022/03/23 10:40:02;;;;;;;29.02;21.08;;;14.60;98.30;;;;;;4961624;28;20047;-58
2022/03/23 10:42:30;;;;;;;;;;;14.70;98.60;;;;;;4959437;29;20077;-58
2022/03/23 10:45:10;;;;;;;30.60;21.65;;;14.80;96.40;;;;;;4961227;28;19922;-59
2022/03/23 10:47:38;;;;;;;29.05;20.70;;;14.90;95.30;;;;;;4961001;28;20126;-58
2022/03/23 10:50:19;;;;;;;28.63;19.55;;;15.00;95.30;;;;;;4960284;28;20051;-58
2022/03/23 10:52:53;;;;;;;24.60;17.27;;;15.00;96.00;;;;;;4962782;28;20043;-57
2022/03/23 10:55:20;;;;;;;26.73;18.48;;;15.10;94.70;;;;;;4964282;29;20050;-59
2022/03/23 10:57:52;;;;;;;25.98;18.63;;;15.10;94.80;;;;;;4963561;29;20051;-58
2022/03/23 11:00:34;;;;;;;25.85;18.80;;;15.20;93.10;;;;;;4964865;28;20043;-58
2022/03/23 11:03:01;;;;;;;25.67;17.88;;;15.30;93.80;;;;;;4964001;28;20155;-58
2022/03/23 11:05:37;;;;;;;25.92;17.73;;;15.30;91.40;;;;;;4965264;28;20070;-59
2022/03/23 11:08:12;;;;;;;26.08;18.17;;;15.30;92.00;;;;;;4963925;28;20286;-59
2022/03/23 11:16:21;;;;;;;29.65;17.40;;;15.60;92.50;;;;;;4963001;29;20054;-59
2022/03/23 11:18:47;;;;;;;27.83;17.27;;;15.80;91.60;;;;;;4965057;28;20043;-59
2022/03/23 11:21:13;;;;;;;25.20;17.33;;;15.90;91.70;;;;;;4962698;29;20512;-59
2022/03/23 11:23:38;;;;;;;27.73;18.73;;;15.80;89.60;;;;;;4964250;28;20047;-59
2022/03/23 11:26:10;;;;;;;28.90;17.55;;;15.80;91.90;;;;;;4962802;29;20059;-59
2022/03/23 11:28:38;;;;;;;22.27;15.38;;;15.80;91.90;;;;;;4963700;28;20447;-59
2022/03/23 11:31:09;;;;;;;26.00;16.08;;;16.00;85.30;;;;;;4964577;28;20105;-60
2022/03/23 11:33:35;;;;;;;25.88;16.40;;;16.00;90.10;;;;;;4962054;29;20050;-59
2022/03/23 11:36:04;;;;;;;26.50;17.15;;;16.00;89.60;;;;;;4964569;28;20039;-57
2022/03/23 11:38:30;;;;;;;25.50;16.05;;;16.00;89.70;;;;;;4963881;28;20106;-59
2022/03/23 11:40:57;;;;;;;28.70;17.55;;;16.00;90.00;;;;;;4963802;29;20043;-59
2022/03/23 11:43:25;;;;;;;26.95;18.25;;;16.20;89.60;;;;;;4964184;28;20039;-59
2022/03/23 11:45:52;;;;;;;24.42;17.40;;;16.30;88.10;;;;;;4962922;28;20132;-60
2022/03/23 11:48:41;;;;;;;25.95;17.60;;;16.50;87.20;;;;;;4964419;28;20031;-60
2022/03/23 11:51:13;;;;;;;23.05;15.75;;;16.50;84.50;;;;;;4963175;28;20055;-59
2022/03/23 11:53:54;;;;;;;23.30;16.52;;;16.50;86.10;;;;;;4963786;29;20054;-59
2022/03/23 11:56:27;;;;;;;26.77;16.60;;;16.70;84.50;;;;;;4962646;28;20047;-59
2022/03/23 11:58:53;;;;;;;25.90;16.92;;;16.80;85.50;;;;;;4963006;28;20051;-59
2022/03/23 12:01:20;;;;;;;28.65;17.85;;;16.90;88.30;;;;;;4963018;29;20042;-59
2022/03/23 12:03:57;;;;;;;25.75;17.67;;;16.90;87.40;;;;;;4962199;28;20452;-59
2022/03/23 12:06:35;;;;;;;26.33;17.52;;;16.90;82.60;;;;;;4963482;28;20110;-59
2022/03/23 12:09:01;;;;;;;26.80;16.80;;;17.00;86.70;;;;;;4963821;28;20043;-59
2022/03/23 12:11:45;;;;;;;28.02;15.40;;;16.90;83.90;;;;;;4962657;29;20182;-59
2022/03/23 12:14:34;;;;;;;25.90;17.52;;;17.00;82.40;;;;;;4963911;29;20098;-59
2022/03/23 12:17:01;;;;;;;27.20;17.05;;;17.20;84.70;;;;;;4945254;29;20098;-59
2022/03/23 12:19:30;;;;;;;23.25;16.27;;;17.10;81.80;;;;;;4963424;28;20039;-58
2022/03/23 12:22:05;;;;;;;19.83;12.73;;;17.20;84.80;;;;;;4963653;28;20036;-59
2022/03/23 12:25:11;;;;;;;23.48;12.30;;;17.10;78.60;;;;;;4960850;29;20054;-59
2022/03/23 12:28:04;;;;;;;21.92;12.55;;;17.20;79.70;;;;;;4963667;28;20055;-59
2022/03/23 12:30:29;;;;;;;21.25;12.32;;;17.30;78.70;;;;;;4926171;29;20062;-59
2022/03/23 12:32:57;;;;;;;20.05;11.80;;;17.30;81.40;;;;;;4962434;29;20039;-59
2022/03/23 12:35:30;;;;;;;22.50;12.10;;;17.30;80.90;;;;;;4963511;28;20043;-59
2022/03/23 12:38:01;;;;;;;19.23;12.20;;;17.20;77.70;;;;;;4962262;28;20114;-59
2022/03/23 12:40:42;;;;;;;22.10;13.07;;;17.30;78.80;;;;;;4963403;28;20058;-59
2022/03/23 12:43:08;;;;;;;19.77;12.27;;;17.40;77.00;;;;;;4963162;28;20051;-59
2022/03/23 12:45:38;;;;;;;19.42;11.50;;;17.50;80.50;;;;;;4962044;29;20133;-58
2022/03/23 12:57:49;;;;;;;21.52;11.13;;;17.60;79.50;;;;;;4962072;28;20062;-59
2022/03/23 12:59:17;;;;;;;18.98;13.52;;;17.50;76.90;;;;;;4961702;29;20051;-59
2022/03/23 13:01:44;;;;;;;20.55;13.95;;;17.50;78.90;;;;;;4963084;28;20047;-59
2022/03/23 13:04:41;;;;;;;25.38;14.05;;;17.60;79.70;;;;;;4962031;28;20074;-59